createdAt,value
2018-07-22T00:01:02.017Z,11.67
2018-07-22T00:03:34.291Z,11.48
2018-07-22T00:06:05.711Z,12.40
2018-07-22T00:08:36.303Z,11.43
2018-07-22T00:11:12.138Z,11.57
2018-07-22T00:13:48.435Z,11.27
2018-07-22T00:16:26.444Z,11.50
2018-07-22T00:19:04.574Z,10.50
2018-07-22T00:21:41.316Z,11.60
2018-07-22T00:24:13.386Z,10.50
2018-07-22T00:27:24.834Z,11.07
2018-07-22T00:30:11.045Z,12.33
2018-07-22T00:32:47.877Z,11.70
2018-07-22T00:35:36.629Z,11.67
2018-07-22T00:38:14.217Z,11.83
2018-07-22T00:40:47.329Z,11.50
2018-07-22T00:43:24.966Z,11.47
2018-07-22T00:53:23.852Z,12.13
2018-07-22T01:07:57.986Z,9.93
2018-07-22T01:16:10.513Z,10.10
2018-07-22T01:18:46.437Z,10.30
2018-07-22T01:21:17.319Z,11.27
2018-07-22T01:23:48.890Z,10.10
2018-07-22T01:26:19.610Z,11.67
2018-07-22T01:28:52.887Z,11.10
2018-07-22T01:31:25.001Z,11.40
2018-07-22T01:33:58.866Z,11.53
2018-07-22T01:36:32.130Z,11.00
2018-07-22T01:47:49.636Z,12.20
2018-07-22T01:50:21.351Z,11.10
2018-07-22T01:52:59.763Z,12.20
2018-07-22T01:55:45.288Z,11.47
2018-07-22T02:14:40.443Z,10.87
2018-07-22T02:17:10.936Z,11.40
2018-07-22T02:19:42.114Z,12.30
2018-07-22T02:22:16.395Z,10.87
2018-07-22T02:24:48.536Z,10.83
2018-07-22T02:32:45.035Z,10.83
2018-07-22T02:38:11.269Z,11.60
2018-07-22T02:40:50.735Z,10.63
2018-07-22T02:43:30.900Z,11.17
2018-07-22T02:49:34.737Z,11.50
2018-07-22T02:52:16.210Z,11.07
2018-07-22T20:22:41.109Z,9.87
2018-07-22T20:25:33.371Z,8.78
2018-07-22T20:31:54.747Z,9.80
2018-07-22T20:42:08.400Z,9.60
2018-07-22T20:44:40.340Z,9.10
2018-07-22T20:47:44.971Z,9.70
2018-07-22T20:50:21.866Z,9.10
2018-07-22T20:53:24.519Z,9.47
2018-07-22T21:07:42.656Z,8.63
2018-07-22T21:10:12.073Z,8.83
2018-07-22T21:14:07.263Z,9.77
2018-07-22T21:16:53.626Z,9.00
2018-07-22T21:23:12.727Z,9.23
2018-07-22T21:26:35.083Z,10.10
2018-07-22T21:29:07.379Z,10.00
2018-07-22T21:32:19.337Z,10.43
2018-07-22T21:35:19.760Z,9.80
2018-07-22T21:40:56.632Z,9.70
2018-07-22T21:43:53.954Z,9.43
2018-07-22T21:46:26.033Z,11.53
2018-07-22T21:49:06.940Z,11.50
2018-07-22T21:54:38.334Z,10.30
2018-07-22T21:57:09.954Z,10.20
2018-07-22T21:59:39.375Z,10.93
2018-07-22T22:02:08.829Z,10.23
2018-07-22T22:04:37.802Z,9.90
2018-07-22T22:07:07.066Z,10.70
2018-07-22T22:09:36.405Z,10.20
2018-07-22T22:12:05.515Z,10.80
2018-07-22T22:17:14.796Z,10.30
2018-07-22T22:19:47.673Z,10.27
2018-07-22T22:22:18.359Z,10.67
2018-07-22T22:24:49.292Z,9.63
2018-07-22T22:27:20.485Z,11.67
2018-07-22T22:29:52.376Z,11.60
2018-07-22T22:32:25.522Z,11.10
2018-07-22T22:34:59.129Z,10.70
2018-07-22T22:37:32.033Z,11.37
2018-07-22T22:40:04.417Z,10.50
2018-07-22T22:42:35.671Z,11.08
2018-07-22T22:45:05.061Z,10.67
2018-07-22T22:47:34.305Z,10.00
2018-07-22T22:50:03.860Z,10.10
2018-07-22T22:52:33.068Z,11.43
2018-07-22T22:55:02.235Z,11.07
2018-07-22T22:57:31.026Z,11.00
2018-07-22T23:00:00.109Z,10.50
2018-07-22T23:02:34.298Z,10.97
2018-07-22T23:05:04.060Z,11.10
2018-07-22T23:07:42.807Z,12.63
2018-07-22T23:10:11.982Z,11.90
2018-07-22T23:12:41.979Z,11.73
2018-07-22T23:15:11.344Z,11.73
2018-07-22T23:17:40.898Z,11.37
2018-07-22T23:20:11.832Z,10.63
2018-07-22T23:22:40.944Z,11.47
2018-07-22T23:25:12.246Z,10.28
2018-07-22T23:27:44.456Z,10.17
2018-07-22T23:30:14.142Z,9.90
2018-07-22T23:32:43.732Z,11.17
2018-07-22T23:35:12.754Z,10.83
2018-07-22T23:37:42.381Z,11.87
2018-07-22T23:40:11.685Z,11.40
2018-07-22T23:42:40.780Z,11.87
2018-07-22T23:45:15.307Z,11.30
2018-07-22T23:47:44.087Z,12.30
2018-07-22T23:50:12.754Z,13.03
2018-07-22T23:52:41.771Z,11.90
2018-07-22T23:55:11.078Z,12.30
2018-07-22T23:57:40.335Z,12.73
